Time;durP1;ratioP1;P1;durP2;ratioP2;P2;SDS_P1;SDS_P2;PMS_P1;PMS_P2;Temp;Humidity;BMP_temperature;BMP_pressure;BME280_temperature;BME280_humidity;BME280_pressure;Samples;Min_cycle;Max_cycle;Signal;HPM_P1;HPM_P2
2022/12/01 00:01:45;;;;;;;71.57;33.22;;;6.60;99.90;;;;;;5039928;28;20021;-77
2022/12/01 00:04:10;;;;;;;73.10;31.70;;;6.40;99.90;;;;;;5005762;28;20025;-77
2022/12/01 00:06:36;;;;;;;71.47;31.15;;;6.40;99.90;;;;;;5021083;28;20220;-77
2022/12/01 00:12:05;;;;;;;71.72;31.35;;;6.60;99.90;;;;;;5025767;28;20449;-75
2022/12/01 00:14:31;;;;;;;;;;;7.60;99.90;;;;;;5024097;28;20201;-75
2022/12/01 00:16:57;;;;;;;63.05;28.50;;;6.60;99.90;;;;;;5008028;28;19959;-76
2022/12/01 00:19:26;;;;;;;70.60;31.55;;;7.30;99.90;;;;;;5006644;28;20033;-76
2022/12/01 00:21:52;;;;;;;73.72;32.00;;;6.30;99.90;;;;;;5054479;28;20033;-77
2022/12/01 00:24:18;;;;;;;75.13;32.83;;;6.50;99.90;;;;;;5016090;28;20036;-76
2022/12/01 00:26:48;;;;;;;76.60;33.33;;;6.50;99.90;;;;;;5026129;28;20024;-76
2022/12/01 00:29:16;;;;;;;69.22;32.17;;;6.60;99.90;;;;;;5044817;28;20227;-76
2022/12/01 00:31:41;;;;;;;71.10;32.17;;;6.30;99.90;;;;;;5028113;28;20108;-76
2022/12/01 00:34:21;;;;;;;77.15;32.60;;;7.30;99.90;;;;;;5044875;28;20506;-76
2022/12/01 00:36:47;;;;;;;69.30;30.67;;;6.50;99.90;;;;;;5027211;28;20033;-77
2022/12/01 00:39:12;;;;;;;72.90;31.60;;;6.30;99.90;;;;;;5032372;28;20047;-76
2022/12/01 00:41:38;;;;;;;79.80;34.03;;;6.50;99.90;;;;;;5046073;28;20039;-76
2022/12/01 00:44:06;;;;;;;78.55;34.35;;;6.40;99.90;;;;;;5027757;28;20151;-76
2022/12/01 00:46:57;;;;;;;73.53;33.03;;;6.50;99.90;;;;;;5015566;28;20060;-76
2022/12/01 00:49:26;;;;;;;71.32;31.92;;;5.40;99.90;;;;;;5028518;28;20212;-77
2022/12/01 00:51:52;;;;;;;72.68;32.25;;;6.30;99.90;;;;;;5043937;28;20254;-77
2022/12/01 00:54:23;;;;;;;79.68;33.97;;;6.30;99.90;;;;;;5044355;28;20088;-76
2022/12/01 00:56:48;;;;;;;81.95;34.40;;;6.40;99.90;;;;;;5029673;28;20025;-76
2022/12/01 00:59:14;;;;;;;78.55;34.33;;;6.80;99.90;;;;;;5010737;28;20041;-76
2022/12/01 01:01:40;;;;;;;80.95;33.47;;;6.30;99.90;;;;;;5029168;28;20192;-75
2022/12/01 01:04:06;;;;;;;76.95;34.17;;;6.50;99.90;;;;;;5021943;28;20039;-75
2022/12/01 01:06:34;;;;;;;79.82;33.13;;;6.30;99.90;;;;;;5041097;28;20060;-75
2022/12/01 01:09:00;;;;;;;79.78;34.90;;;6.40;99.90;;;;;;5040297;28;20037;-77
2022/12/01 01:11:26;;;;;;;79.57;34.97;;;6.80;99.90;;;;;;5014043;28;20028;-77
2022/12/01 01:13:51;;;;;;;76.93;33.50;;;6.50;99.90;;;;;;5041496;28;20216;-73
2022/12/01 01:16:19;;;;;;;81.75;34.83;;;6.50;99.90;;;;;;5039581;28;20049;-78
2022/12/01 01:18:45;;;;;;;74.22;32.78;;;6.30;99.90;;;;;;5032666;28;20056;-77
2022/12/01 01:21:14;;;;;;;76.28;31.35;;;6.40;99.90;;;;;;5027733;28;20059;-76
2022/12/01 01:23:40;;;;;;;82.22;35.50;;;6.50;99.90;;;;;;5043519;28;20270;-76
2022/12/01 01:26:10;;;;;;;78.88;34.35;;;6.50;99.90;;;;;;5051335;28;20037;-77
2022/12/01 01:28:36;;;;;;;75.90;32.40;;;6.30;99.90;;;;;;5026820;28;20040;-76
2022/12/01 01:31:08;;;;;;;79.38;34.25;;;6.30;99.90;;;;;;5035063;28;20268;-75
2022/12/01 01:33:35;;;;;;;79.63;32.13;;;6.50;99.90;;;;;;5033510;28;20453;-75
2022/12/01 01:36:02;;;;;;;79.25;33.80;;;6.30;99.90;;;;;;5049858;28;20112;-75
2022/12/01 01:38:28;;;;;;;82.25;36.03;;;6.30;99.90;;;;;;5043264;28;20037;-75
2022/12/01 01:40:54;;;;;;;80.72;34.00;;;6.40;99.90;;;;;;5011182;28;20265;-75
2022/12/01 01:44:20;;;;;;;75.32;33.42;;;6.30;99.90;;;;;;5003281;28;20095;-75
2022/12/01 01:46:45;;;;;;;75.10;33.65;;;6.50;99.90;;;;;;5041200;28;20033;-74
2022/12/01 01:49:13;;;;;;;86.10;37.00;;;6.30;99.90;;;;;;5024318;28;20043;-75
2022/12/01 01:51:56;;;;;;;79.32;35.90;;;6.30;99.90;;;;;;5005589;28;20034;-76
2022/12/01 01:54:31;;;;;;;76.57;35.20;;;6.30;99.90;;;;;;5023417;28;20017;-75
2022/12/01 01:57:00;;;;;;;83.50;35.85;;;6.50;99.90;;;;;;5040943;28;20044;-75
2022/12/01 01:59:31;;;;;;;76.45;32.33;;;6.40;99.90;;;;;;5025922;28;20025;-76
2022/12/01 02:02:04;;;;;;;85.00;37.58;;;6.50;99.90;;;;;;5040613;28;20111;-76
2022/12/01 02:04:33;;;;;;;80.53;34.90;;;6.30;99.90;;;;;;5025417;28;20094;-76
2022/12/01 02:06:59;;;;;;;81.45;34.70;;;6.50;99.90;;;;;;5050885;28;20063;-76
2022/12/01 02:09:24;;;;;;;73.63;34.63;;;6.30;99.90;;;;;;5047661;28;20338;-74
2022/12/01 02:12:14;;;;;;;83.05;35.75;;;6.30;99.90;;;;;;5037600;28;20035;-76
2022/12/01 02:15:10;;;;;;;76.05;35.50;;;6.30;99.90;;;;;;5029008;28;20089;-76
2022/12/01 02:17:55;;;;;;;;;;;6.30;99.90;;;;;;5057969;28;20044;-78
2022/12/01 02:24:33;;;;;;;77.13;33.03;;;6.40;99.90;;;;;;5034295;28;20218;-78
2022/12/01 02:27:01;;;;;;;80.32;35.22;;;6.30;99.90;;;;;;4992723;28;20059;-77
2022/12/01 02:33:34;;;;;;;73.53;31.45;;;6.40;99.90;;;;;;4975441;28;20062;-78
2022/12/01 02:36:28;;;;;;;78.72;32.53;;;6.20;99.90;;;;;;4996664;28;20042;-77
2022/12/01 02:39:00;;;;;;;77.30;33.55;;;6.50;99.90;;;;;;5022026;28;20047;-78
2022/12/01 02:41:31;;;;;;;80.20;35.45;;;6.30;99.90;;;;;;5025804;28;20100;-76
2022/12/01 02:44:06;;;;;;;80.13;33.20;;;6.50;99.90;;;;;;5038753;28;20032;-76
2022/12/01 02:46:35;;;;;;;78.85;34.90;;;6.30;99.90;;;;;;5023232;28;20045;-75
2022/12/01 02:49:47;;;;;;;82.95;32.88;;;6.30;99.90;;;;;;5027271;28;20029;-76
2022/12/01 02:52:14;;;;;;;80.28;36.38;;;6.40;99.90;;;;;;5027781;28;20040;-75
2022/12/01 02:54:43;;;;;;;79.40;34.08;;;6.60;99.90;;;;;;5040137;28;20044;-76
2022/12/01 02:57:12;;;;;;;90.00;34.22;;;7.20;99.90;;;;;;5021235;28;20033;-75
2022/12/01 02:59:41;;;;;;;85.97;35.00;;;6.50;99.90;;;;;;5022309;28;20037;-76
2022/12/01 03:02:17;;;;;;;79.80;34.15;;;6.20;99.90;;;;;;5042526;28;20028;-76
2022/12/01 03:05:00;;;;;;;76.22;34.03;;;6.30;99.90;;;;;;5038672;28;20037;-76
2022/12/01 03:07:47;;;;;;;82.25;36.38;;;6.20;99.90;;;;;;5026738;28;20037;-75
2022/12/01 03:10:23;;;;;;;85.28;36.67;;;6.40;99.90;;;;;;5035243;28;20032;-75
2022/12/01 03:13:28;;;;;;;83.13;34.08;;;6.40;99.90;;;;;;5041414;28;20060;-75
2022/12/01 03:16:02;;;;;;;83.50;33.77;;;6.40;99.90;;;;;;5027093;28;20041;-75
2022/12/01 03:18:52;;;;;;;88.80;36.28;;;6.30;99.90;;;;;;5037933;28;20295;-74
2022/12/01 03:21:34;;;;;;;79.18;33.47;;;6.40;99.90;;;;;;5040646;28;20035;-75
2022/12/01 03:24:06;;;;;;;83.35;36.25;;;6.30;99.90;;;;;;5023278;28;20374;-76
2022/12/01 03:26:35;;;;;;;77.57;36.00;;;6.30;99.90;;;;;;5039974;28;20066;-76
2022/12/01 03:29:09;;;;;;;90.50;35.88;;;6.40;99.90;;;;;;5031413;28;20384;-76
2022/12/01 03:31:41;;;;;;;92.38;36.78;;;6.20;99.90;;;;;;5024852;28;20029;-76
2022/12/01 03:35:07;;;;;;;90.40;37.75;;;6.60;99.90;;;;;;5022431;28;20032;-77
2022/12/01 03:37:45;;;;;;;77.95;32.45;;;6.50;99.90;;;;;;5012978;28;20045;-77
2022/12/01 03:40:26;;;;;;;88.30;37.65;;;6.60;99.90;;;;;;5025935;28;20072;-77
2022/12/01 03:42:59;;;;;;;83.50;34.78;;;6.10;99.90;;;;;;5041766;28;20075;-76
2022/12/01 03:45:39;;;;;;;92.75;37.15;;;6.40;99.90;;;;;;5040206;28;20037;-78
2022/12/01 03:48:06;;;;;;;83.63;33.47;;;6.30;99.90;;;;;;5041029;28;20103;-77
2022/12/01 03:50:50;;;;;;;88.38;35.08;;;7.30;99.90;;;;;;5020249;28;20029;-78
2022/12/01 03:53:28;;;;;;;86.22;35.53;;;6.20;99.90;;;;;;5039056;28;20052;-78
2022/12/01 03:56:01;;;;;;;83.72;34.58;;;6.50;99.90;;;;;;5042809;28;20079;-76
2022/12/01 03:58:35;;;;;;;94.47;35.67;;;6.20;99.90;;;;;;5034831;28;20029;-73
2022/12/01 04:01:02;;;;;;;84.27;34.83;;;6.30;99.90;;;;;;5029510;28;20198;-74
2022/12/01 04:03:28;;;;;;;88.47;36.65;;;6.90;99.90;;;;;;5046197;28;20382;-74
2022/12/01 04:05:54;;;;;;;86.50;35.03;;;6.30;99.90;;;;;;5042799;28;20212;-74
2022/12/01 04:08:20;;;;;;;96.25;38.00;;;6.30;99.90;;;;;;5044576;28;20196;-74
2022/12/01 04:10:45;;;;;;;84.85;35.08;;;7.20;99.90;;;;;;5047861;28;20029;-76
2022/12/01 04:13:21;;;;;;;90.55;36.45;;;6.60;99.90;;;;;;5028813;28;20120;-75
2022/12/01 04:15:48;;;;;;;82.38;33.15;;;6.40;99.90;;;;;;5042564;28;20045;-75
2022/12/01 04:18:13;;;;;;;83.88;35.22;;;6.50;99.90;;;;;;5027788;28;20139;-77
2022/12/01 04:20:39;;;;;;;80.72;34.80;;;6.50;99.90;;;;;;5034197;28;20052;-75
2022/12/01 04:23:04;;;;;;;82.38;35.10;;;6.50;99.90;;;;;;5038109;28;20348;-75
2022/12/01 04:25:30;;;;;;;87.30;34.13;;;6.60;99.90;;;;;;5029116;28;20033;-74
2022/12/01 04:27:56;;;;;;;79.60;33.20;;;6.40;99.90;;;;;;5029135;28;20029;-75
2022/12/01 04:30:22;;;;;;;79.60;33.40;;;6.30;99.90;;;;;;5050285;28;20029;-75
2022/12/01 04:32:53;;;;;;;83.72;35.05;;;6.40;99.90;;;;;;5044533;28;20072;-75
2022/12/01 04:35:18;;;;;;;75.40;32.95;;;6.30;99.90;;;;;;5028295;28;20036;-75
2022/12/01 04:37:44;;;;;;;84.50;34.85;;;7.20;99.90;;;;;;5045765;28;20036;-76
2022/12/01 04:40:10;;;;;;;79.38;33.28;;;6.40;99.90;;;;;;5007918;28;20251;-75
2022/12/01 04:42:36;;;;;;;83.10;34.20;;;6.20;99.90;;;;;;5045279;28;20104;-75
2022/12/01 04:45:02;;;;;;;76.05;34.33;;;6.40;99.90;;;;;;5044702;28;20185;-75
2022/12/01 04:47:28;;;;;;;82.07;33.75;;;6.10;99.90;;;;;;5028372;28;20067;-75
2022/12/01 04:49:56;;;;;;;83.50;34.85;;;6.30;99.90;;;;;;5040107;28;20035;-75
2022/12/01 04:52:25;;;;;;;76.32;32.42;;;6.40;99.90;;;;;;5011521;28;20040;-75
2022/12/01 04:54:53;;;;;;;74.63;32.80;;;6.40;99.90;;;;;;5027006;28;20053;-77
2022/12/01 04:57:18;;;;;;;79.53;33.05;;;6.40;99.90;;;;;;5025067;28;20071;-76
2022/12/01 04:59:44;;;;;;;77.55;34.20;;;6.40;99.90;;;;;;5001485;28;20033;-76
2022/12/01 05:02:10;;;;;;;80.82;33.65;;;6.30;99.90;;;;;;5032257;28;20346;-76
2022/12/01 05:04:40;;;;;;;73.10;31.33;;;6.30;99.90;;;;;;5034760;28;20041;-76
2022/12/01 05:07:09;;;;;;;73.03;33.13;;;6.40;99.90;;;;;;5016083;28;20261;-76
2022/12/01 05:09:35;;;;;;;79.13;31.92;;;6.20;99.90;;;;;;5012270;28;20045;-75
2022/12/01 05:12:04;;;;;;;76.43;31.88;;;6.20;99.90;;;;;;5009238;28;20121;-76
2022/12/01 05:14:29;;;;;;;79.65;32.75;;;6.20;99.90;;;;;;5008014;28;20049;-76
2022/12/01 05:16:56;;;;;;;74.78;33.25;;;6.40;99.90;;;;;;5006464;28;20048;-76
2022/12/01 05:22:27;;;;;;;82.30;33.63;;;6.20;99.90;;;;;;5020988;28;20049;-75
2022/12/01 05:25:23;;;;;;;83.47;34.55;;;6.20;99.90;;;;;;5022905;28;20129;-77
2022/12/01 05:27:49;;;;;;;77.30;33.22;;;6.30;99.90;;;;;;4994243;28;20037;-76
2022/12/01 05:30:26;;;;;;;79.10;31.83;;;6.00;99.90;;;;;;5039326;28;20090;-76
2022/12/01 05:33:08;;;;;;;82.00;34.80;;;6.30;99.90;;;;;;5005665;28;20089;-76
2022/12/01 05:35:33;;;;;;;78.28;32.50;;;5.20;99.90;;;;;;5006689;28;20060;-75
2022/12/01 05:37:59;;;;;;;73.50;31.73;;;6.00;99.90;;;;;;5032395;28;20044;-76
2022/12/01 05:40:30;;;;;;;79.40;32.85;;;6.10;99.90;;;;;;5042428;28;20044;-75
2022/12/01 05:42:57;;;;;;;73.57;29.98;;;5.30;99.90;;;;;;5025898;28;20079;-75
2022/12/01 05:45:23;;;;;;;69.80;31.17;;;5.90;99.90;;;;;;5011325;28;20339;-75
2022/12/01 05:47:49;;;;;;;73.95;30.45;;;5.70;99.90;;;;;;5041521;28;20480;-75
2022/12/01 05:50:15;;;;;;;71.07;32.05;;;5.50;99.90;;;;;;5021486;28;20032;-75
2022/12/01 05:52:40;;;;;;;74.30;33.20;;;5.60;99.90;;;;;;5043387;28;20044;-74
2022/12/01 05:55:06;;;;;;;75.32;31.33;;;5.60;99.90;;;;;;5021282;28;20109;-75
2022/12/01 05:57:33;;;;;;;72.40;29.95;;;5.70;99.90;;;;;;5046840;28;20029;-75
2022/12/01 05:59:59;;;;;;;77.10;32.15;;;5.80;99.90;;;;;;5033923;28;20129;-74
2022/12/01 06:06:36;;;;;;;59.25;25.40;;;5.80;99.90;;;;;;4992896;28;20050;-75
2022/12/01 06:09:05;;;;;;;80.70;31.55;;;5.60;99.90;;;;;;5024272;28;20044;-75
2022/12/01 06:11:31;;;;;;;72.85;29.75;;;5.50;99.90;;;;;;5024333;28;20278;-74
2022/12/01 06:14:17;;;;;;;76.57;30.45;;;5.70;99.90;;;;;;5041890;28;20052;-76
2022/12/01 06:16:43;;;;;;;70.80;28.17;;;5.60;99.90;;;;;;5025249;28;20063;-75
2022/12/01 06:19:09;;;;;;;78.65;31.20;;;7.50;99.90;;;;;;5040817;28;20029;-76
2022/12/01 06:21:34;;;;;;;65.45;29.10;;;5.80;99.90;;;;;;5038778;28;20044;-75
2022/12/01 06:27:33;;;;;;;74.30;28.40;;;5.70;99.90;;;;;;4994898;28;20419;-77
2022/12/01 06:30:06;;;;;;;63.70;26.60;;;5.60;99.90;;;;;;5015971;28;20037;-76
2022/12/01 06:32:32;;;;;;;68.35;28.25;;;5.50;99.90;;;;;;5041935;28;20219;-76
2022/12/01 06:34:58;;;;;;;73.18;30.30;;;5.70;99.90;;;;;;5024379;28;20095;-76
2022/12/01 06:37:23;;;;;;;67.82;27.67;;;5.60;99.90;;;;;;5022436;28;20025;-77
2022/12/01 06:39:49;;;;;;;70.03;30.25;;;5.70;99.90;;;;;;5009490;28;20033;-74
2022/12/01 06:42:15;;;;;;;73.97;29.55;;;5.80;99.90;;;;;;5017951;28;20032;-75
2022/12/01 06:44:40;;;;;;;62.33;28.35;;;5.60;99.90;;;;;;5020660;28;20055;-76
2022/12/01 06:47:07;;;;;;;71.45;31.27;;;5.90;99.90;;;;;;5037200;28;20016;-76
2022/12/01 06:49:33;;;;;;;64.93;28.10;;;5.70;99.90;;;;;;5051564;28;20178;-75
2022/12/01 06:52:08;;;;;;;67.57;29.25;;;5.60;99.90;;;;;;5035216;28;20025;-75
2022/12/01 06:54:42;;;;;;;75.05;28.80;;;5.90;99.90;;;;;;5022931;28;20033;-76
2022/12/01 06:57:08;;;;;;;74.03;28.45;;;5.70;99.90;;;;;;5036863;28;20091;-76
2022/12/01 06:59:39;;;;;;;73.82;30.27;;;5.70;99.90;;;;;;5024147;28;20039;-76
2022/12/01 07:02:24;;;;;;;63.45;27.35;;;5.90;99.90;;;;;;5024334;28;20040;-75
2022/12/01 07:04:49;;;;;;;72.10;30.00;;;5.60;99.90;;;;;;5040400;28;20028;-75
2022/12/01 07:07:15;;;;;;;67.35;28.73;;;6.20;99.90;;;;;;5030602;28;20032;-75
2022/12/01 07:09:41;;;;;;;64.22;28.05;;;5.70;99.90;;;;;;5024149;28;20047;-75
2022/12/01 07:12:06;;;;;;;62.22;27.38;;;5.50;99.90;;;;;;5025266;28;20024;-75
2022/12/01 07:14:45;;;;;;;64.47;28.48;;;5.60;99.90;;;;;;5001847;28;20049;-75
2022/12/01 07:17:24;;;;;;;63.85;27.42;;;5.40;99.90;;;;;;5024411;28;20316;-75
2022/12/01 07:19:59;;;;;;;64.80;27.17;;;5.90;99.90;;;;;;5040071;28;20125;-75
2022/12/01 07:23:02;;;;;;;;;;;;;;;;;;;;;
2022/12/01 07:25:43;;;;;;;62.15;27.27;;;5.20;99.90;;;;;;5043256;28;20083;-75
2022/12/01 07:28:09;;;;;;;66.25;28.10;;;5.10;99.90;;;;;;5022018;28;20028;-74
2022/12/01 07:30:34;;;;;;;65.35;27.52;;;5.80;99.90;;;;;;5007669;28;20036;-75
2022/12/01 07:33:03;;;;;;;62.83;26.85;;;6.00;99.90;;;;;;5024542;28;20047;-75
2022/12/01 07:35:29;;;;;;;64.95;25.45;;;5.20;99.90;;;;;;5039382;28;20353;-76
2022/12/01 07:37:55;;;;;;;81.03;25.02;;;4.80;99.90;;;;;;5037646;28;20382;-75
2022/12/01 07:40:23;;;;;;;119.10;25.48;;;5.00;99.90;;;;;;5008693;28;20029;-74
2022/12/01 07:42:49;;;;;;;141.85;24.95;;;4.80;99.90;;;;;;5023323;28;20034;-75
2022/12/01 07:45:15;;;;;;;53.03;23.23;;;4.80;99.90;;;;;;5038553;28;20162;-75
2022/12/01 07:47:40;;;;;;;46.60;21.58;;;5.60;99.90;;;;;;5016472;28;20043;-74
2022/12/01 07:50:07;;;;;;;54.88;25.25;;;4.90;99.90;;;;;;5016800;28;20033;-78
2022/12/01 07:52:32;;;;;;;50.05;22.63;;;4.60;99.90;;;;;;5023308;28;20315;-75
2022/12/01 07:54:58;;;;;;;53.00;23.33;;;4.60;99.90;;;;;;5005445;28;20074;-74
2022/12/01 07:57:24;;;;;;;47.70;20.88;;;5.70;99.90;;;;;;5025852;28;20095;-74
2022/12/01 07:59:49;;;;;;;45.75;20.55;;;4.70;99.90;;;;;;5019862;28;20036;-75
2022/12/01 08:02:15;;;;;;;48.60;21.27;;;4.60;99.90;;;;;;5018033;28;20258;-77
2022/12/01 08:04:42;;;;;;;41.67;18.73;;;4.90;99.90;;;;;;5022634;28;20513;-77
2022/12/01 08:07:27;;;;;;;43.92;20.00;;;4.50;99.90;;;;;;5038647;28;20068;-77
2022/12/01 08:09:52;;;;;;;34.58;17.85;;;4.40;99.90;;;;;;5008333;28;20048;-77
2022/12/01 08:12:18;;;;;;;35.75;18.00;;;4.30;99.90;;;;;;5042252;28;20203;-75
2022/12/01 08:14:44;;;;;;;33.60;17.70;;;4.40;99.90;;;;;;5024754;28;20060;-76
2022/12/01 08:17:09;;;;;;;34.80;17.40;;;4.20;99.90;;;;;;5040766;28;20033;-75
2022/12/01 08:19:35;;;;;;;35.85;18.00;;;4.90;99.90;;;;;;5036804;28;20351;-77
2022/12/01 08:22:03;;;;;;;33.47;17.60;;;4.40;99.90;;;;;;5024291;28;20497;-76
2022/12/01 08:24:29;;;;;;;31.15;16.73;;;4.30;99.90;;;;;;5045002;28;20385;-75
2022/12/01 08:26:55;;;;;;;40.20;20.08;;;4.20;99.90;;;;;;5020998;28;20093;-75
2022/12/01 08:29:21;;;;;;;32.42;17.35;;;5.20;99.90;;;;;;5019498;28;20331;-75
2022/12/01 08:31:46;;;;;;;33.78;17.70;;;4.30;99.90;;;;;;5038351;28;20028;-76
2022/12/01 08:34:12;;;;;;;37.10;18.90;;;4.30;99.90;;;;;;5047782;28;20037;-76
2022/12/01 08:36:38;;;;;;;36.78;17.98;;;4.70;99.90;;;;;;5004044;28;20033;-76
2022/12/01 08:39:06;;;;;;;33.83;18.67;;;4.30;99.90;;;;;;5023373;28;20060;-76
2022/12/01 08:41:31;;;;;;;32.97;17.67;;;4.20;99.90;;;;;;5036158;28;20108;-76
2022/12/01 08:43:58;;;;;;;35.70;16.73;;;4.30;99.90;;;;;;5025289;28;20044;-76
2022/12/01 08:46:26;;;;;;;34.40;18.60;;;4.30;99.90;;;;;;5022833;28;20045;-76
2022/12/01 08:48:56;;;;;;;34.03;18.05;;;4.30;99.90;;;;;;5022799;28;20036;-77
2022/12/01 08:51:25;;;;;;;42.05;22.42;;;4.30;99.90;;;;;;5031547;28;20115;-76
2022/12/01 08:53:51;;;;;;;40.45;20.92;;;4.40;99.90;;;;;;5040204;28;20048;-76
2022/12/01 08:56:20;;;;;;;33.03;17.58;;;4.60;99.90;;;;;;5032209;28;20028;-75
2022/12/01 08:58:46;;;;;;;32.50;17.33;;;4.50;99.90;;;;;;5049374;28;20033;-73
2022/12/01 09:01:14;;;;;;;33.55;17.05;;;4.60;99.90;;;;;;5042784;28;20082;-75
2022/12/01 09:03:41;;;;;;;34.00;17.08;;;4.60;99.90;;;;;;5046805;28;20040;-74
2022/12/01 09:06:10;;;;;;;38.17;18.25;;;4.80;99.90;;;;;;5026259;28;20075;-74
2022/12/01 09:08:37;;;;;;;38.63;19.27;;;5.30;99.90;;;;;;5029735;28;20343;-74
2022/12/01 09:11:06;;;;;;;34.20;18.02;;;5.10;99.90;;;;;;5020969;28;20213;-73
2022/12/01 09:13:36;;;;;;;33.17;17.48;;;5.50;99.90;;;;;;5040223;28;20120;-73
2022/12/01 09:16:16;;;;;;;35.25;18.05;;;5.90;99.90;;;;;;5027019;28;20045;-74
2022/12/01 09:19:18;;;;;;;31.23;16.58;;;6.50;99.90;;;;;;5024243;28;20037;-73
2022/12/01 09:21:44;;;;;;;29.10;16.60;;;6.70;99.90;;;;;;4995385;28;20046;-75
2022/12/01 09:27:56;;;;;;;23.23;13.75;;;7.90;99.90;;;;;;4995300;28;20047;-74
2022/12/01 09:30:23;;;;;;;22.23;13.82;;;6.90;99.90;;;;;;5007632;28;20029;-74
2022/12/01 09:32:50;;;;;;;20.60;12.18;;;7.10;99.90;;;;;;5003474;28;20033;-75
2022/12/01 09:35:16;;;;;;;21.75;13.38;;;7.30;99.90;;;;;;5015487;28;20032;-75
2022/12/01 09:37:42;;;;;;;21.98;12.57;;;6.90;99.90;;;;;;5012480;28;20338;-74
2022/12/01 09:40:24;;;;;;;20.40;13.02;;;6.70;99.90;;;;;;5022480;28;20087;-74
2022/12/01 09:43:05;;;;;;;20.13;13.07;;;6.60;99.90;;;;;;5024244;28;20040;-74
2022/12/01 09:45:36;;;;;;;23.85;13.85;;;6.50;99.90;;;;;;5027440;28;20063;-74
2022/12/01 09:48:03;;;;;;;19.15;13.20;;;6.40;99.90;;;;;;5026753;28;20039;-75
2022/12/01 09:50:31;;;;;;;23.20;12.88;;;6.00;99.90;;;;;;5006847;28;20033;-73
2022/12/01 09:53:22;;;;;;;21.05;13.25;;;6.20;99.90;;;;;;5006689;28;20316;-74
2022/12/01 09:55:48;;;;;;;20.23;12.55;;;5.90;99.90;;;;;;5029821;28;20044;-75
2022/12/01 09:58:20;;;;;;;21.83;12.32;;;5.90;99.90;;;;;;5005101;28;20029;-75
2022/12/01 10:00:48;;;;;;;21.45;13.75;;;5.80;99.90;;;;;;5021977;28;20036;-74
2022/12/01 10:03:49;;;;;;;23.48;13.50;;;5.90;99.90;;;;;;5022878;28;20042;-73
2022/12/01 10:06:19;;;;;;;21.90;12.75;;;5.70;99.90;;;;;;4996840;28;20041;-75
2022/12/01 10:09:00;;;;;;;26.40;14.50;;;5.70;99.90;;;;;;5020290;28;20345;-73
2022/12/01 10:11:40;;;;;;;23.70;13.48;;;5.80;99.90;;;;;;5018599;28;20029;-72
2022/12/01 10:14:16;;;;;;;23.45;14.95;;;5.60;99.90;;;;;;5028071;28;20057;-73
2022/12/01 10:17:32;;;;;;;24.08;14.70;;;5.60;99.90;;;;;;5040908;28;20034;-72
2022/12/01 10:20:20;;;;;;;21.30;12.95;;;5.50;99.90;;;;;;5002676;28;20041;-73
2022/12/01 10:23:29;;;;;;;22.23;12.98;;;5.50;99.90;;;;;;5025541;28;20036;-74
2022/12/01 10:26:13;;;;;;;21.40;12.75;;;5.70;99.90;;;;;;5030151;28;20040;-75
2022/12/01 10:29:03;;;;;;;21.55;13.20;;;5.60;99.90;;;;;;5048830;28;20049;-75
2022/12/01 10:31:57;;;;;;;25.05;13.32;;;5.70;99.90;;;;;;5041234;28;20028;-75
2022/12/01 10:34:27;;;;;;;24.30;12.88;;;5.80;99.90;;;;;;5039189;28;20032;-74
2022/12/01 10:36:54;;;;;;;22.67;13.38;;;5.50;99.90;;;;;;5023914;28;20086;-74
2022/12/01 10:39:43;;;;;;;24.98;14.00;;;6.10;99.90;;;;;;5031440;28;20044;-74
2022/12/01 10:42:42;;;;;;;28.30;14.82;;;6.30;99.90;;;;;;5035491;28;20291;-74
2022/12/01 10:45:27;;;;;;;31.58;17.30;;;6.10;99.90;;;;;;5022136;28;20190;-73
2022/12/01 10:48:19;;;;;;;37.53;17.25;;;6.80;99.90;;;;;;5055772;28;20032;-74
2022/12/01 10:50:55;;;;;;;25.85;15.05;;;6.10;99.90;;;;;;5030433;28;20087;-73
2022/12/01 10:53:27;;;;;;;27.60;15.35;;;6.30;99.90;;;;;;5006444;28;20092;-74
2022/12/01 10:56:20;;;;;;;29.02;15.98;;;6.10;99.90;;;;;;5019888;28;20056;-74
2022/12/01 10:58:48;;;;;;;31.15;15.93;;;6.30;99.90;;;;;;5026927;28;20024;-75
2022/12/01 11:01:33;;;;;;;28.73;16.33;;;6.10;99.90;;;;;;5045157;28;20082;-75
2022/12/01 11:04:06;;;;;;;32.35;18.75;;;6.20;99.90;;;;;;5032311;28;20029;-77
2022/12/01 11:06:34;;;;;;;38.22;20.05;;;6.30;99.90;;;;;;5020448;28;20243;-76
2022/12/01 11:09:03;;;;;;;31.50;17.15;;;6.50;99.90;;;;;;5006780;28;20036;-73
2022/12/01 11:11:36;;;;;;;30.42;17.77;;;6.50;99.90;;;;;;5031903;28;20044;-74
2022/12/01 11:14:18;;;;;;;33.38;17.25;;;6.60;99.90;;;;;;5019750;28;20176;-73
2022/12/01 11:16:46;;;;;;;34.20;17.20;;;6.70;99.90;;;;;;5002993;28;20034;-75
2022/12/01 11:19:31;;;;;;;36.35;19.08;;;6.60;99.90;;;;;;5002214;28;20033;-74
2022/12/01 11:22:21;;;;;;;40.50;21.52;;;6.60;99.90;;;;;;5011135;28;20042;-74
2022/12/01 11:25:17;;;;;;;39.22;20.63;;;6.70;99.90;;;;;;4976331;28;20049;-75
2022/12/01 11:27:53;;;;;;;37.38;19.92;;;6.80;99.90;;;;;;5009424;28;20088;-76
2022/12/01 11:30:30;;;;;;;37.97;20.30;;;7.20;99.90;;;;;;5029421;28;20144;-75
2022/12/01 11:32:58;;;;;;;37.92;19.65;;;7.00;99.90;;;;;;5003349;28;20117;-75
2022/12/01 11:35:29;;;;;;;39.60;19.83;;;7.40;99.90;;;;;;5020232;28;20041;-74
2022/12/01 11:38:01;;;;;;;43.20;22.48;;;7.40;99.90;;;;;;5015211;28;20033;-75
2022/12/01 11:40:30;;;;;;;47.28;23.17;;;7.30;99.90;;;;;;4986245;28;20033;-73
2022/12/01 11:43:03;;;;;;;50.83;24.55;;;7.00;99.90;;;;;;5025156;28;20192;-74
2022/12/01 11:45:38;;;;;;;45.55;22.88;;;7.30;99.90;;;;;;5017262;28;20037;-74
2022/12/01 11:48:20;;;;;;;52.50;25.45;;;7.50;99.90;;;;;;5014848;28;20037;-73
2022/12/01 11:51:03;;;;;;;48.53;24.50;;;7.40;99.90;;;;;;5008784;28;20030;-74
2022/12/01 11:53:30;;;;;;;53.05;24.88;;;7.50;99.90;;;;;;5010287;28;20044;-76
2022/12/01 11:56:22;;;;;;;45.45;23.75;;;7.60;99.90;;;;;;5009567;28;20029;-76
2022/12/01 11:59:10;;;;;;;49.10;24.67;;;7.60;99.90;;;;;;5026025;28;20469;-74
2022/12/01 12:01:49;;;;;;;44.40;22.52;;;7.60;99.90;;;;;;5010096;28;20378;-74
2022/12/01 12:04:40;;;;;;;51.22;26.20;;;7.80;99.90;;;;;;4995619;28;20331;-74
2022/12/01 12:07:28;;;;;;;41.38;22.35;;;7.60;99.90;;;;;;5024871;28;20026;-74
2022/12/01 12:10:12;;;;;;;45.65;24.42;;;7.70;99.90;;;;;;5022923;28;20394;-74
2022/12/01 12:12:50;;;;;;;42.60;21.92;;;7.50;99.90;;;;;;5007929;28;20104;-75
2022/12/01 12:15:46;;;;;;;39.63;22.35;;;7.20;99.90;;;;;;5029143;28;20056;-73
2022/12/01 12:18:30;;;;;;;35.33;20.85;;;7.30;99.90;;;;;;5036714;28;20135;-73
2022/12/01 12:20:55;;;;;;;37.85;20.15;;;7.10;99.90;;;;;;5044825;28;20701;-74
2022/12/01 12:23:31;;;;;;;34.15;19.83;;;7.10;99.90;;;;;;5024467;28;20037;-73
2022/12/01 12:26:28;;;;;;;38.47;20.95;;;7.00;99.90;;;;;;5042266;28;20083;-73
2022/12/01 12:29:29;;;;;;;32.97;19.08;;;6.90;99.90;;;;;;5033081;28;20095;-74
2022/12/01 12:32:30;;;;;;;31.52;19.45;;;6.90;99.90;;;;;;5036452;28;20044;-74
2022/12/01 12:35:41;;;;;;;35.35;19.70;;;6.70;99.90;;;;;;4987655;28;20045;-74
2022/12/01 12:38:43;;;;;;;34.28;19.35;;;6.80;99.90;;;;;;5025498;28;20045;-74
2022/12/01 12:41:34;;;;;;;32.60;18.45;;;6.80;99.90;;;;;;5033642;28;20108;-72
2022/12/01 12:44:42;;;;;;;37.72;19.85;;;6.80;99.90;;;;;;5030348;28;20036;-73
2022/12/01 12:47:41;;;;;;;38.65;20.00;;;6.70;99.90;;;;;;5029636;28;20033;-74
2022/12/01 12:50:54;;;;;;;41.55;19.08;;;6.70;99.90;;;;;;5026781;28;20037;-76
2022/12/01 12:53:25;;;;;;;43.55;22.88;;;6.70;99.90;;;;;;5004767;28;20053;-75
2022/12/01 12:56:13;;;;;;;;;;;;;;;;;;;;;
2022/12/01 12:59:03;;;;;;;42.88;22.58;;;6.50;99.90;;;;;;5050580;28;20052;-72
2022/12/01 13:01:40;;;;;;;47.28;24.15;;;6.50;99.90;;;;;;5030249;28;20033;-74
2022/12/01 13:04:18;;;;;;;47.15;22.58;;;6.60;99.90;;;;;;5029985;28;20140;-72
2022/12/01 13:06:54;;;;;;;41.78;21.95;;;6.60;99.90;;;;;;5019574;28;20033;-74
2022/12/01 13:09:25;;;;;;;39.35;22.30;;;6.60;99.90;;;;;;5031779;28;20400;-75
2022/12/01 13:12:04;;;;;;;46.17;22.90;;;6.60;99.90;;;;;;5009784;28;20037;-75
2022/12/01 13:14:39;;;;;;;45.78;22.98;;;6.60;99.90;;;;;;5020923;28;20128;-75
2022/12/01 13:17:45;;;;;;;39.13;21.58;;;6.40;99.90;;;;;;5004541;28;20346;-75
2022/12/01 13:20:24;;;;;;;46.03;24.73;;;6.50;99.90;;;;;;5022403;28;20036;-74
2022/12/01 13:23:06;;;;;;;48.00;24.02;;;6.40;99.90;;;;;;5022136;28;20113;-75
2022/12/01 13:25:39;;;;;;;41.97;24.15;;;5.10;99.90;;;;;;5006787;28;20041;-74
2022/12/01 13:28:14;;;;;;;44.47;24.02;;;6.40;99.90;;;;;;4984423;28;20102;-74
2022/12/01 13:30:39;;;;;;;47.47;24.13;;;6.60;99.90;;;;;;4998065;28;20032;-75
2022/12/01 13:33:06;;;;;;;46.22;23.27;;;6.30;99.90;;;;;;5014033;28;20033;-76
2022/12/01 13:35:36;;;;;;;51.58;25.88;;;6.40;99.90;;;;;;5008645;28;20045;-75
2022/12/01 13:38:28;;;;;;;50.65;24.83;;;6.30;99.90;;;;;;5006237;28;20056;-75
2022/12/01 13:41:18;;;;;;;48.75;25.67;;;6.40;99.90;;;;;;5024058;28;20223;-75